sensor_id;sensor_type;location;lat;lon;timestamp;P1;durP1;ratioP1;P2;durP2;ratioP2
77944;SDS011;67142;47.404;-1.384;2023-05-07T00:00:39;25.42;;;18.23;;
77944;SDS011;67142;47.404;-1.384;2023-05-07T00:03:05;24.88;;;19.15;;
77944;SDS011;67142;47.404;-1.384;2023-05-07T00:05:31;24.70;;;17.93;;
77944;SDS011;67142;47.404;-1.384;2023-05-07T00:07:57;25.55;;;19.75;;
77944;SDS011;67142;47.404;-1.384;2023-05-07T00:10:23;26.98;;;19.60;;
77944;SDS011;67142;47.404;-1.384;2023-05-07T00:12:50;29.90;;;19.80;;
77944;SDS011;67142;47.404;-1.384;2023-05-07T00:15:16;26.98;;;19.02;;
77944;SDS011;67142;47.404;-1.384;2023-05-07T00:17:42;27.87;;;19.47;;
77944;SDS011;67142;47.404;-1.384;2023-05-07T00:20:08;27.67;;;19.05;;
77944;SDS011;67142;47.404;-1.384;2023-05-07T00:22:34;27.05;;;18.77;;
77944;SDS011;67142;47.404;-1.384;2023-05-07T00:25:00;28.58;;;18.88;;
77944;SDS011;67142;47.404;-1.384;2023-05-07T00:27:27;31.48;;;20.80;;
77944;SDS011;67142;47.404;-1.384;2023-05-07T00:29:53;30.35;;;19.50;;
77944;SDS011;67142;47.404;-1.384;2023-05-07T00:32:19;29.52;;;20.17;;
77944;SDS011;67142;47.404;-1.384;2023-05-07T00:34:44;33.47;;;19.75;;
77944;SDS011;67142;47.404;-1.384;2023-05-07T00:37:10;26.77;;;19.42;;
77944;SDS011;67142;47.404;-1.384;2023-05-07T00:39:37;33.08;;;19.95;;
77944;SDS011;67142;47.404;-1.384;2023-05-07T00:42:03;27.03;;;19.53;;
77944;SDS011;67142;47.404;-1.384;2023-05-07T00:44:29;28.10;;;19.85;;
77944;SDS011;67142;47.404;-1.384;2023-05-07T00:46:56;33.35;;;20.58;;
77944;SDS011;67142;47.404;-1.384;2023-05-07T00:49:22;31.42;;;20.20;;
77944;SDS011;67142;47.404;-1.384;2023-05-07T00:51:50;27.98;;;19.70;;
77944;SDS011;67142;47.404;-1.384;2023-05-07T00:54:16;29.43;;;19.47;;
77944;SDS011;67142;47.404;-1.384;2023-05-07T00:56:43;30.00;;;19.77;;
77944;SDS011;67142;47.404;-1.384;2023-05-07T00:59:10;23.45;;;19.38;;
77944;SDS011;67142;47.404;-1.384;2023-05-07T01:01:36;29.27;;;20.20;;
77944;SDS011;67142;47.404;-1.384;2023-05-07T01:04:02;29.35;;;19.20;;
77944;SDS011;67142;47.404;-1.384;2023-05-07T01:06:28;28.37;;;19.90;;
77944;SDS011;67142;47.404;-1.384;2023-05-07T01:08:55;30.98;;;20.42;;
77944;SDS011;67142;47.404;-1.384;2023-05-07T01:11:22;27.90;;;19.80;;
77944;SDS011;67142;47.404;-1.384;2023-05-07T01:13:48;23.88;;;19.13;;
77944;SDS011;67142;47.404;-1.384;2023-05-07T01:16:15;23.10;;;19.45;;
77944;SDS011;67142;47.404;-1.384;2023-05-07T01:18:41;28.80;;;19.23;;
77944;SDS011;67142;47.404;-1.384;2023-05-07T01:21:07;24.58;;;18.58;;
77944;SDS011;67142;47.404;-1.384;2023-05-07T01:23:36;24.77;;;17.85;;
77944;SDS011;67142;47.404;-1.384;2023-05-07T01:26:03;25.13;;;17.98;;
77944;SDS011;67142;47.404;-1.384;2023-05-07T01:28:29;21.40;;;17.15;;
77944;SDS011;67142;47.404;-1.384;2023-05-07T01:31:00;26.77;;;17.10;;
77944;SDS011;67142;47.404;-1.384;2023-05-07T01:33:27;20.83;;;15.88;;
77944;SDS011;67142;47.404;-1.384;2023-05-07T01:35:56;18.80;;;15.63;;
77944;SDS011;67142;47.404;-1.384;2023-05-07T01:38:25;21.33;;;16.27;;
77944;SDS011;67142;47.404;-1.384;2023-05-07T01:40:51;22.85;;;16.05;;
77944;SDS011;67142;47.404;-1.384;2023-05-07T01:43:17;19.67;;;16.20;;
77944;SDS011;67142;47.404;-1.384;2023-05-07T01:45:43;20.25;;;16.10;;
77944;SDS011;67142;47.404;-1.384;2023-05-07T01:48:11;23.42;;;16.17;;
77944;SDS011;67142;47.404;-1.384;2023-05-07T01:50:37;20.20;;;15.63;;
77944;SDS011;67142;47.404;-1.384;2023-05-07T01:53:03;18.65;;;15.75;;
77944;SDS011;67142;47.404;-1.384;2023-05-07T01:55:29;23.57;;;15.97;;
77944;SDS011;67142;47.404;-1.384;2023-05-07T01:57:56;18.00;;;14.90;;
77944;SDS011;67142;47.404;-1.384;2023-05-07T02:00:22;19.13;;;15.63;;
77944;SDS011;67142;47.404;-1.384;2023-05-07T02:02:48;17.15;;;14.40;;
77944;SDS011;67142;47.404;-1.384;2023-05-07T02:05:14;20.42;;;14.63;;
77944;SDS011;67142;47.404;-1.384;2023-05-07T02:07:40;19.37;;;15.57;;
77944;SDS011;67142;47.404;-1.384;2023-05-07T02:10:06;19.63;;;15.02;;
77944;SDS011;67142;47.404;-1.384;2023-05-07T02:12:32;24.33;;;15.15;;
77944;SDS011;67142;47.404;-1.384;2023-05-07T02:14:58;24.73;;;15.10;;
77944;SDS011;67142;47.404;-1.384;2023-05-07T02:17:24;16.13;;;14.43;;
77944;SDS011;67142;47.404;-1.384;2023-05-07T02:19:51;16.80;;;14.43;;
77944;SDS011;67142;47.404;-1.384;2023-05-07T02:22:17;16.65;;;14.82;;
77944;SDS011;67142;47.404;-1.384;2023-05-07T02:24:43;20.83;;;14.30;;
77944;SDS011;67142;47.404;-1.384;2023-05-07T02:27:09;17.52;;;14.20;;
77944;SDS011;67142;47.404;-1.384;2023-05-07T02:29:35;17.10;;;15.18;;
77944;SDS011;67142;47.404;-1.384;2023-05-07T02:32:01;17.83;;;14.73;;
77944;SDS011;67142;47.404;-1.384;2023-05-07T02:34:27;18.50;;;14.30;;
77944;SDS011;67142;47.404;-1.384;2023-05-07T02:36:53;17.40;;;13.95;;
77944;SDS011;67142;47.404;-1.384;2023-05-07T02:39:20;20.30;;;14.63;;
77944;SDS011;67142;47.404;-1.384;2023-05-07T02:41:46;17.77;;;15.38;;
77944;SDS011;67142;47.404;-1.384;2023-05-07T02:44:12;16.30;;;14.17;;
77944;SDS011;67142;47.404;-1.384;2023-05-07T02:46:38;20.70;;;14.80;;
77944;SDS011;67142;47.404;-1.384;2023-05-07T02:49:04;16.10;;;14.45;;
77944;SDS011;67142;47.404;-1.384;2023-05-07T02:51:31;15.70;;;14.10;;
77944;SDS011;67142;47.404;-1.384;2023-05-07T02:53:57;17.50;;;14.00;;
77944;SDS011;67142;47.404;-1.384;2023-05-07T02:56:25;19.57;;;14.57;;
77944;SDS011;67142;47.404;-1.384;2023-05-07T02:58:51;16.98;;;14.43;;
77944;SDS011;67142;47.404;-1.384;2023-05-07T03:01:17;14.95;;;13.45;;
77944;SDS011;67142;47.404;-1.384;2023-05-07T03:03:43;20.17;;;14.20;;
77944;SDS011;67142;47.404;-1.384;2023-05-07T03:06:09;16.75;;;14.02;;
77944;SDS011;67142;47.404;-1.384;2023-05-07T03:08:35;16.00;;;14.30;;
77944;SDS011;67142;47.404;-1.384;2023-05-07T03:11:02;16.55;;;13.80;;
77944;SDS011;67142;47.404;-1.384;2023-05-07T03:13:28;17.13;;;14.30;;
77944;SDS011;67142;47.404;-1.384;2023-05-07T03:15:54;16.38;;;14.77;;
77944;SDS011;67142;47.404;-1.384;2023-05-07T03:18:20;15.88;;;14.07;;
77944;SDS011;67142;47.404;-1.384;2023-05-07T03:20:47;16.93;;;15.10;;
77944;SDS011;67142;47.404;-1.384;2023-05-07T03:23:13;15.93;;;14.23;;
77944;SDS011;67142;47.404;-1.384;2023-05-07T03:25:39;17.40;;;14.15;;
77944;SDS011;67142;47.404;-1.384;2023-05-07T03:28:05;18.70;;;14.52;;
77944;SDS011;67142;47.404;-1.384;2023-05-07T03:30:31;16.80;;;14.52;;
77944;SDS011;67142;47.404;-1.384;2023-05-07T03:32:58;15.93;;;14.30;;
77944;SDS011;67142;47.404;-1.384;2023-05-07T03:35:24;16.05;;;13.93;;
77944;SDS011;67142;47.404;-1.384;2023-05-07T03:37:50;15.63;;;14.02;;
77944;SDS011;67142;47.404;-1.384;2023-05-07T03:40:16;16.55;;;14.60;;
77944;SDS011;67142;47.404;-1.384;2023-05-07T03:42:42;20.27;;;14.53;;
77944;SDS011;67142;47.404;-1.384;2023-05-07T03:45:08;15.37;;;13.53;;
77944;SDS011;67142;47.404;-1.384;2023-05-07T03:47:34;15.40;;;13.95;;
77944;SDS011;67142;47.404;-1.384;2023-05-07T03:50:00;16.48;;;14.13;;
77944;SDS011;67142;47.404;-1.384;2023-05-07T03:52:26;15.80;;;14.30;;
77944;SDS011;67142;47.404;-1.384;2023-05-07T03:54:53;14.68;;;13.20;;
77944;SDS011;67142;47.404;-1.384;2023-05-07T03:57:19;15.33;;;13.80;;
77944;SDS011;67142;47.404;-1.384;2023-05-07T03:59:45;18.52;;;13.43;;
77944;SDS011;67142;47.404;-1.384;2023-05-07T04:02:11;14.82;;;13.63;;
77944;SDS011;67142;47.404;-1.384;2023-05-07T04:04:37;15.02;;;13.40;;
77944;SDS011;67142;47.404;-1.384;2023-05-07T04:07:03;14.65;;;13.30;;
77944;SDS011;67142;47.404;-1.384;2023-05-07T04:09:29;14.83;;;13.30;;
77944;SDS011;67142;47.404;-1.384;2023-05-07T04:11:55;14.63;;;13.10;;
77944;SDS011;67142;47.404;-1.384;2023-05-07T04:14:21;14.38;;;13.10;;
77944;SDS011;67142;47.404;-1.384;2023-05-07T04:16:47;14.07;;;12.73;;
77944;SDS011;67142;47.404;-1.384;2023-05-07T04:19:14;15.13;;;13.65;;
77944;SDS011;67142;47.404;-1.384;2023-05-07T04:21:40;15.67;;;14.10;;
77944;SDS011;67142;47.404;-1.384;2023-05-07T04:24:06;15.23;;;13.15;;
77944;SDS011;67142;47.404;-1.384;2023-05-07T04:26:32;14.50;;;13.30;;
77944;SDS011;67142;47.404;-1.384;2023-05-07T04:28:58;15.05;;;13.48;;
77944;SDS011;67142;47.404;-1.384;2023-05-07T04:31:25;14.88;;;13.45;;
77944;SDS011;67142;47.404;-1.384;2023-05-07T04:33:51;14.33;;;13.10;;
77944;SDS011;67142;47.404;-1.384;2023-05-07T04:36:17;14.35;;;13.15;;
77944;SDS011;67142;47.404;-1.384;2023-05-07T04:38:43;14.85;;;13.55;;
77944;SDS011;67142;47.404;-1.384;2023-05-07T04:41:12;15.98;;;14.32;;
77944;SDS011;67142;47.404;-1.384;2023-05-07T04:43:38;15.75;;;14.00;;
77944;SDS011;67142;47.404;-1.384;2023-05-07T04:46:05;15.63;;;14.33;;
77944;SDS011;67142;47.404;-1.384;2023-05-07T04:48:31;15.88;;;14.48;;
77944;SDS011;67142;47.404;-1.384;2023-05-07T04:50:57;15.20;;;13.90;;
77944;SDS011;67142;47.404;-1.384;2023-05-07T04:53:23;15.05;;;13.75;;
77944;SDS011;67142;47.404;-1.384;2023-05-07T04:55:49;14.52;;;13.20;;
77944;SDS011;67142;47.404;-1.384;2023-05-07T04:58:20;14.23;;;13.13;;
77944;SDS011;67142;47.404;-1.384;2023-05-07T05:00:46;14.70;;;13.40;;
77944;SDS011;67142;47.404;-1.384;2023-05-07T05:03:12;14.90;;;13.77;;
77944;SDS011;67142;47.404;-1.384;2023-05-07T05:05:38;13.80;;;12.73;;
77944;SDS011;67142;47.404;-1.384;2023-05-07T05:08:04;13.43;;;12.50;;
77944;SDS011;67142;47.404;-1.384;2023-05-07T05:10:30;13.40;;;12.40;;
77944;SDS011;67142;47.404;-1.384;2023-05-07T05:12:56;12.45;;;11.55;;
77944;SDS011;67142;47.404;-1.384;2023-05-07T05:15:22;12.80;;;11.90;;
77944;SDS011;67142;47.404;-1.384;2023-05-07T05:17:48;13.15;;;12.25;;
77944;SDS011;67142;47.404;-1.384;2023-05-07T05:20:14;13.40;;;12.40;;
77944;SDS011;67142;47.404;-1.384;2023-05-07T05:22:41;13.90;;;12.90;;
77944;SDS011;67142;47.404;-1.384;2023-05-07T05:25:07;13.50;;;12.40;;
77944;SDS011;67142;47.404;-1.384;2023-05-07T05:27:34;13.20;;;12.30;;
77944;SDS011;67142;47.404;-1.384;2023-05-07T05:30:00;12.82;;;11.90;;
77944;SDS011;67142;47.404;-1.384;2023-05-07T05:32:26;13.60;;;12.50;;
77944;SDS011;67142;47.404;-1.384;2023-05-07T05:34:52;12.83;;;11.93;;
77944;SDS011;67142;47.404;-1.384;2023-05-07T05:37:18;12.85;;;11.95;;
77944;SDS011;67142;47.404;-1.384;2023-05-07T05:39:44;13.38;;;12.40;;
77944;SDS011;67142;47.404;-1.384;2023-05-07T05:42:10;13.57;;;12.35;;
77944;SDS011;67142;47.404;-1.384;2023-05-07T05:44:36;13.37;;;12.37;;
77944;SDS011;67142;47.404;-1.384;2023-05-07T05:47:02;14.07;;;12.97;;
77944;SDS011;67142;47.404;-1.384;2023-05-07T05:49:28;12.80;;;11.90;;
77944;SDS011;67142;47.404;-1.384;2023-05-07T05:51:54;12.73;;;11.63;;
77944;SDS011;67142;47.404;-1.384;2023-05-07T05:54:21;13.40;;;12.35;;
77944;SDS011;67142;47.404;-1.384;2023-05-07T05:56:47;12.82;;;11.88;;
77944;SDS011;67142;47.404;-1.384;2023-05-07T05:59:13;13.30;;;12.17;;
77944;SDS011;67142;47.404;-1.384;2023-05-07T06:01:39;13.10;;;12.10;;
77944;SDS011;67142;47.404;-1.384;2023-05-07T06:04:05;13.00;;;12.10;;
77944;SDS011;67142;47.404;-1.384;2023-05-07T06:06:31;12.82;;;11.93;;
77944;SDS011;67142;47.404;-1.384;2023-05-07T06:08:57;13.45;;;12.45;;
77944;SDS011;67142;47.404;-1.384;2023-05-07T06:11:23;13.30;;;12.30;;
77944;SDS011;67142;47.404;-1.384;2023-05-07T06:13:50;13.75;;;12.70;;
77944;SDS011;67142;47.404;-1.384;2023-05-07T06:16:16;13.10;;;12.20;;
77944;SDS011;67142;47.404;-1.384;2023-05-07T06:18:42;13.93;;;12.82;;
77944;SDS011;67142;47.404;-1.384;2023-05-07T06:21:10;13.20;;;12.20;;
77944;SDS011;67142;47.404;-1.384;2023-05-07T06:23:36;14.30;;;13.20;;
77944;SDS011;67142;47.404;-1.384;2023-05-07T06:26:02;13.55;;;12.45;;
77944;SDS011;67142;47.404;-1.384;2023-05-07T06:28:28;13.48;;;12.48;;
77944;SDS011;67142;47.404;-1.384;2023-05-07T06:30:55;14.27;;;13.07;;
77944;SDS011;67142;47.404;-1.384;2023-05-07T06:33:21;14.00;;;13.00;;
77944;SDS011;67142;47.404;-1.384;2023-05-07T06:35:47;14.00;;;13.00;;
77944;SDS011;67142;47.404;-1.384;2023-05-07T06:38:13;13.85;;;12.85;;
77944;SDS011;67142;47.404;-1.384;2023-05-07T06:40:39;13.70;;;12.70;;
77944;SDS011;67142;47.404;-1.384;2023-05-07T06:43:06;13.70;;;12.70;;
77944;SDS011;67142;47.404;-1.384;2023-05-07T06:45:32;13.93;;;12.82;;
77944;SDS011;67142;47.404;-1.384;2023-05-07T06:47:58;13.00;;;12.10;;
77944;SDS011;67142;47.404;-1.384;2023-05-07T06:50:24;13.30;;;12.30;;
77944;SDS011;67142;47.404;-1.384;2023-05-07T06:52:50;13.10;;;12.00;;
77944;SDS011;67142;47.404;-1.384;2023-05-07T06:55:16;13.30;;;12.25;;
77944;SDS011;67142;47.404;-1.384;2023-05-07T06:57:42;13.30;;;12.30;;
77944;SDS011;67142;47.404;-1.384;2023-05-07T07:00:08;13.17;;;12.17;;
77944;SDS011;67142;47.404;-1.384;2023-05-07T07:02:34;13.15;;;12.15;;
77944;SDS011;67142;47.404;-1.384;2023-05-07T07:05:00;12.75;;;11.80;;
77944;SDS011;67142;47.404;-1.384;2023-05-07T07:07:26;12.88;;;11.98;;
77944;SDS011;67142;47.404;-1.384;2023-05-07T07:09:52;12.70;;;11.80;;
77944;SDS011;67142;47.404;-1.384;2023-05-07T07:12:18;13.20;;;12.20;;
77944;SDS011;67142;47.404;-1.384;2023-05-07T07:14:44;12.98;;;12.05;;
77944;SDS011;67142;47.404;-1.384;2023-05-07T07:17:11;13.50;;;12.50;;
77944;SDS011;67142;47.404;-1.384;2023-05-07T07:19:37;13.50;;;12.55;;
77944;SDS011;67142;47.404;-1.384;2023-05-07T07:22:04;13.60;;;12.40;;
77944;SDS011;67142;47.404;-1.384;2023-05-07T07:24:30;13.40;;;12.40;;
77944;SDS011;67142;47.404;-1.384;2023-05-07T07:26:56;12.82;;;11.93;;
77944;SDS011;67142;47.404;-1.384;2023-05-07T07:29:22;13.55;;;12.55;;
77944;SDS011;67142;47.404;-1.384;2023-05-07T07:31:50;13.38;;;12.48;;
77944;SDS011;67142;47.404;-1.384;2023-05-07T07:34:16;13.40;;;12.40;;
77944;SDS011;67142;47.404;-1.384;2023-05-07T07:36:42;13.47;;;12.47;;
77944;SDS011;67142;47.404;-1.384;2023-05-07T07:39:08;13.85;;;12.75;;
77944;SDS011;67142;47.404;-1.384;2023-05-07T07:41:34;12.65;;;11.75;;
77944;SDS011;67142;47.404;-1.384;2023-05-07T07:44:02;12.80;;;11.90;;
77944;SDS011;67142;47.404;-1.384;2023-05-07T07:46:28;13.27;;;12.35;;
77944;SDS011;67142;47.404;-1.384;2023-05-07T07:48:54;12.20;;;11.30;;
77944;SDS011;67142;47.404;-1.384;2023-05-07T07:51:23;13.35;;;12.35;;
77944;SDS011;67142;47.404;-1.384;2023-05-07T07:53:49;13.20;;;12.10;;
77944;SDS011;67142;47.404;-1.384;2023-05-07T07:56:15;13.02;;;12.13;;
77944;SDS011;67142;47.404;-1.384;2023-05-07T07:58:41;13.03;;;12.00;;
77944;SDS011;67142;47.404;-1.384;2023-05-07T08:01:07;13.20;;;12.30;;
77944;SDS011;67142;47.404;-1.384;2023-05-07T08:03:33;13.43;;;12.43;;
77944;SDS011;67142;47.404;-1.384;2023-05-07T08:06:00;13.27;;;12.38;;
77944;SDS011;67142;47.404;-1.384;2023-05-07T08:08:26;14.05;;;12.88;;
77944;SDS011;67142;47.404;-1.384;2023-05-07T08:10:52;13.13;;;11.93;;
77944;SDS011;67142;47.404;-1.384;2023-05-07T08:13:18;12.00;;;11.10;;
77944;SDS011;67142;47.404;-1.384;2023-05-07T08:15:44;13.00;;;12.00;;
77944;SDS011;67142;47.404;-1.384;2023-05-07T08:18:10;12.90;;;11.85;;
77944;SDS011;67142;47.404;-1.384;2023-05-07T08:20:36;12.57;;;11.68;;
77944;SDS011;67142;47.404;-1.384;2023-05-07T08:23:04;13.18;;;12.18;;
77944;SDS011;67142;47.404;-1.384;2023-05-07T08:25:34;12.70;;;11.70;;
77944;SDS011;67142;47.404;-1.384;2023-05-07T08:28:00;12.95;;;11.95;;
77944;SDS011;67142;47.404;-1.384;2023-05-07T08:30:28;13.02;;;12.02;;
77944;SDS011;67142;47.404;-1.384;2023-05-07T08:32:54;13.35;;;12.45;;
77944;SDS011;67142;47.404;-1.384;2023-05-07T08:35:20;13.77;;;12.77;;
77944;SDS011;67142;47.404;-1.384;2023-05-07T08:37:46;13.27;;;12.27;;
77944;SDS011;67142;47.404;-1.384;2023-05-07T08:40:12;12.50;;;11.60;;
77944;SDS011;67142;47.404;-1.384;2023-05-07T08:42:38;13.07;;;12.10;;
77944;SDS011;67142;47.404;-1.384;2023-05-07T08:45:08;13.55;;;12.55;;
77944;SDS011;67142;47.404;-1.384;2023-05-07T08:47:44;13.82;;;12.82;;
77944;SDS011;67142;47.404;-1.384;2023-05-07T08:50:12;14.00;;;13.00;;
77944;SDS011;67142;47.404;-1.384;2023-05-07T08:52:41;13.40;;;12.40;;
77944;SDS011;67142;47.404;-1.384;2023-05-07T08:55:07;13.68;;;12.68;;
77944;SDS011;67142;47.404;-1.384;2023-05-07T08:57:34;14.10;;;13.00;;
77944;SDS011;67142;47.404;-1.384;2023-05-07T09:00:00;14.23;;;13.23;;
77944;SDS011;67142;47.404;-1.384;2023-05-07T09:02:26;14.37;;;13.37;;
77944;SDS011;67142;47.404;-1.384;2023-05-07T09:04:52;14.10;;;13.10;;
77944;SDS011;67142;47.404;-1.384;2023-05-07T09:07:19;13.90;;;12.90;;
77944;SDS011;67142;47.404;-1.384;2023-05-07T09:09:45;13.82;;;12.82;;
77944;SDS011;67142;47.404;-1.384;2023-05-07T09:12:12;13.20;;;12.30;;
77944;SDS011;67142;47.404;-1.384;2023-05-07T09:14:38;13.60;;;12.60;;
77944;SDS011;67142;47.404;-1.384;2023-05-07T09:17:04;14.13;;;13.13;;
77944;SDS011;67142;47.404;-1.384;2023-05-07T09:19:30;14.23;;;13.13;;
77944;SDS011;67142;47.404;-1.384;2023-05-07T09:22:03;13.75;;;12.75;;
77944;SDS011;67142;47.404;-1.384;2023-05-07T09:24:29;14.15;;;13.15;;
77944;SDS011;67142;47.404;-1.384;2023-05-07T09:26:58;14.30;;;13.30;;
77944;SDS011;67142;47.404;-1.384;2023-05-07T09:29:26;14.10;;;13.00;;
77944;SDS011;67142;47.404;-1.384;2023-05-07T09:31:54;14.13;;;13.07;;
77944;SDS011;67142;47.404;-1.384;2023-05-07T09:34:20;13.68;;;12.68;;
77944;SDS011;67142;47.404;-1.384;2023-05-07T09:36:47;13.93;;;12.85;;
77944;SDS011;67142;47.404;-1.384;2023-05-07T09:39:13;13.77;;;12.87;;
77944;SDS011;67142;47.404;-1.384;2023-05-07T09:41:46;13.95;;;12.95;;
77944;SDS011;67142;47.404;-1.384;2023-05-07T09:44:12;14.13;;;13.13;;
77944;SDS011;67142;47.404;-1.384;2023-05-07T09:46:38;14.50;;;13.50;;
77944;SDS011;67142;47.404;-1.384;2023-05-07T09:49:04;13.50;;;12.60;;
77944;SDS011;67142;47.404;-1.384;2023-05-07T09:51:39;13.90;;;12.90;;
77944;SDS011;67142;47.404;-1.384;2023-05-07T09:54:05;13.93;;;12.93;;
77944;SDS011;67142;47.404;-1.384;2023-05-07T09:56:32;13.38;;;12.38;;
77944;SDS011;67142;47.404;-1.384;2023-05-07T09:58:59;13.70;;;12.70;;
77944;SDS011;67142;47.404;-1.384;2023-05-07T10:01:25;13.90;;;12.90;;
77944;SDS011;67142;47.404;-1.384;2023-05-07T10:03:52;13.23;;;12.33;;
77944;SDS011;67142;47.404;-1.384;2023-05-07T10:06:19;13.88;;;12.88;;
77944;SDS011;67142;47.404;-1.384;2023-05-07T10:08:45;14.07;;;12.98;;
77944;SDS011;67142;47.404;-1.384;2023-05-07T10:11:11;13.80;;;12.80;;
77944;SDS011;67142;47.404;-1.384;2023-05-07T10:13:38;13.90;;;12.90;;
77944;SDS011;67142;47.404;-1.384;2023-05-07T10:16:05;14.17;;;13.17;;
77944;SDS011;67142;47.404;-1.384;2023-05-07T10:18:32;13.85;;;12.85;;
77944;SDS011;67142;47.404;-1.384;2023-05-07T10:21:08;14.73;;;13.63;;
77944;SDS011;67142;47.404;-1.384;2023-05-07T10:23:36;14.02;;;13.02;;
77944;SDS011;67142;47.404;-1.384;2023-05-07T10:26:05;14.88;;;13.88;;
77944;SDS011;67142;47.404;-1.384;2023-05-07T10:28:33;15.67;;;14.47;;
77944;SDS011;67142;47.404;-1.384;2023-05-07T10:31:10;15.23;;;13.93;;
77944;SDS011;67142;47.404;-1.384;2023-05-07T10:33:40;15.32;;;13.98;;
77944;SDS011;67142;47.404;-1.384;2023-05-07T10:36:08;14.77;;;13.73;;
77944;SDS011;67142;47.404;-1.384;2023-05-07T10:38:34;15.23;;;14.10;;
77944;SDS011;67142;47.404;-1.384;2023-05-07T10:41:00;13.80;;;12.70;;
77944;SDS011;67142;47.404;-1.384;2023-05-07T10:43:42;14.98;;;13.98;;
77944;SDS011;67142;47.404;-1.384;2023-05-07T10:46:13;15.00;;;13.80;;
77944;SDS011;67142;47.404;-1.384;2023-05-07T10:51:24;15.68;;;14.57;;
77944;SDS011;67142;47.404;-1.384;2023-05-07T10:54:17;15.50;;;14.40;;
77944;SDS011;67142;47.404;-1.384;2023-05-07T10:56:37;15.07;;;14.07;;
77944;SDS011;67142;47.404;-1.384;2023-05-07T11:04:22;16.08;;;14.98;;
77944;SDS011;67142;47.404;-1.384;2023-05-07T11:15:12;15.77;;;14.65;;
77944;SDS011;67142;47.404;-1.384;2023-05-07T11:17:56;16.13;;;15.02;;
77944;SDS011;67142;47.404;-1.384;2023-05-07T11:23:08;17.00;;;15.80;;
77944;SDS011;67142;47.404;-1.384;2023-05-07T11:25:34;16.30;;;15.20;;
77944;SDS011;67142;47.404;-1.384;2023-05-07T11:28:04;16.27;;;15.18;;
77944;SDS011;67142;47.404;-1.384;2023-05-07T11:30:30;15.70;;;14.60;;
77944;SDS011;67142;47.404;-1.384;2023-05-07T11:32:57;15.37;;;14.37;;
77944;SDS011;67142;47.404;-1.384;2023-05-07T11:35:23;15.93;;;14.73;;
77944;SDS011;67142;47.404;-1.384;2023-05-07T11:37:49;15.32;;;14.32;;
77944;SDS011;67142;47.404;-1.384;2023-05-07T11:40:16;15.30;;;14.10;;
77944;SDS011;67142;47.404;-1.384;2023-05-07T11:42:42;16.33;;;15.23;;
77944;SDS011;67142;47.404;-1.384;2023-05-07T11:45:08;15.97;;;14.87;;
77944;SDS011;67142;47.404;-1.384;2023-05-07T11:47:35;15.65;;;14.55;;
77944;SDS011;67142;47.404;-1.384;2023-05-07T11:50:04;15.45;;;14.35;;
77944;SDS011;67142;47.404;-1.384;2023-05-07T11:52:32;14.93;;;13.85;;
77944;SDS011;67142;47.404;-1.384;2023-05-07T11:54:58;14.88;;;13.80;;
77944;SDS011;67142;47.404;-1.384;2023-05-07T11:57:25;15.53;;;14.40;;
77944;SDS011;67142;47.404;-1.384;2023-05-07T11:59:54;15.93;;;14.77;;
77944;SDS011;67142;47.404;-1.384;2023-05-07T12:02:21;16.08;;;14.95;;
77944;SDS011;67142;47.404;-1.384;2023-05-07T12:04:47;15.90;;;14.80;;
77944;SDS011;67142;47.404;-1.384;2023-05-07T12:07:13;16.20;;;15.10;;
77944;SDS011;67142;47.404;-1.384;2023-05-07T12:09:43;16.00;;;14.90;;
77944;SDS011;67142;47.404;-1.384;2023-05-07T12:12:09;16.58;;;15.48;;
77944;SDS011;67142;47.404;-1.384;2023-05-07T12:14:41;15.10;;;14.00;;
77944;SDS011;67142;47.404;-1.384;2023-05-07T12:17:08;15.80;;;14.70;;
77944;SDS011;67142;47.404;-1.384;2023-05-07T12:19:35;16.13;;;15.02;;
77944;SDS011;67142;47.404;-1.384;2023-05-07T12:22:04;15.27;;;14.17;;
77944;SDS011;67142;47.404;-1.384;2023-05-07T12:24:43;14.80;;;13.80;;
77944;SDS011;67142;47.404;-1.384;2023-05-07T12:27:09;14.77;;;13.73;;
77944;SDS011;67142;47.404;-1.384;2023-05-07T12:29:35;15.20;;;14.10;;
77944;SDS011;67142;47.404;-1.384;2023-05-07T12:32:04;14.80;;;13.80;;
77944;SDS011;67142;47.404;-1.384;2023-05-07T12:34:31;15.30;;;14.20;;
77944;SDS011;67142;47.404;-1.384;2023-05-07T12:36:57;14.85;;;13.77;;
77944;SDS011;67142;47.404;-1.384;2023-05-07T12:39:23;15.48;;;14.38;;
77944;SDS011;67142;47.404;-1.384;2023-05-07T12:41:56;15.60;;;14.50;;
77944;SDS011;67142;47.404;-1.384;2023-05-07T12:44:24;15.13;;;14.05;;
77944;SDS011;67142;47.404;-1.384;2023-05-07T12:46:50;15.80;;;14.70;;
77944;SDS011;67142;47.404;-1.384;2023-05-07T12:49:16;14.88;;;13.88;;
77944;SDS011;67142;47.404;-1.384;2023-05-07T12:51:48;14.43;;;13.43;;
77944;SDS011;67142;47.404;-1.384;2023-05-07T12:54:30;15.52;;;14.32;;
77944;SDS011;67142;47.404;-1.384;2023-05-07T12:57:00;14.82;;;13.82;;
77944;SDS011;67142;47.404;-1.384;2023-05-07T12:59:39;14.90;;;13.70;;
77944;SDS011;67142;47.404;-1.384;2023-05-07T13:02:05;14.57;;;13.57;;
77944;SDS011;67142;47.404;-1.384;2023-05-07T13:04:31;14.43;;;13.32;;
77944;SDS011;67142;47.404;-1.384;2023-05-07T13:06:58;14.63;;;13.63;;
77944;SDS011;67142;47.404;-1.384;2023-05-07T13:09:24;14.27;;;13.27;;
77944;SDS011;67142;47.404;-1.384;2023-05-07T13:11:50;15.30;;;14.20;;
77944;SDS011;67142;47.404;-1.384;2023-05-07T13:14:16;14.95;;;13.85;;
77944;SDS011;67142;47.404;-1.384;2023-05-07T13:16:43;15.25;;;14.15;;
77944;SDS011;67142;47.404;-1.384;2023-05-07T13:19:09;14.23;;;13.23;;
77944;SDS011;67142;47.404;-1.384;2023-05-07T13:21:35;14.77;;;13.68;;
77944;SDS011;67142;47.404;-1.384;2023-05-07T13:24:01;15.10;;;14.00;;
77944;SDS011;67142;47.404;-1.384;2023-05-07T13:26:27;15.60;;;14.40;;
77944;SDS011;67142;47.404;-1.384;2023-05-07T13:28:53;15.10;;;14.00;;
77944;SDS011;67142;47.404;-1.384;2023-05-07T13:31:20;16.13;;;14.93;;
77944;SDS011;67142;47.404;-1.384;2023-05-07T13:33:46;15.73;;;14.63;;
77944;SDS011;67142;47.404;-1.384;2023-05-07T13:36:12;15.63;;;14.53;;
77944;SDS011;67142;47.404;-1.384;2023-05-07T13:38:41;15.77;;;14.68;;
77944;SDS011;67142;47.404;-1.384;2023-05-07T13:41:07;15.52;;;14.43;;
77944;SDS011;67142;47.404;-1.384;2023-05-07T13:43:33;15.30;;;14.20;;
77944;SDS011;67142;47.404;-1.384;2023-05-07T13:46:02;15.63;;;14.52;;
77944;SDS011;67142;47.404;-1.384;2023-05-07T13:48:28;15.40;;;14.30;;
77944;SDS011;67142;47.404;-1.384;2023-05-07T13:50:54;15.25;;;14.15;;
77944;SDS011;67142;47.404;-1.384;2023-05-07T13:53:20;15.48;;;14.25;;
77944;SDS011;67142;47.404;-1.384;2023-05-07T13:55:46;14.80;;;13.70;;
77944;SDS011;67142;47.404;-1.384;2023-05-07T13:58:12;15.17;;;13.97;;
77944;SDS011;67142;47.404;-1.384;2023-05-07T14:00:38;14.60;;;13.60;;
77944;SDS011;67142;47.404;-1.384;2023-05-07T14:03:04;15.80;;;14.70;;
77944;SDS011;67142;47.404;-1.384;2023-05-07T14:05:31;15.20;;;14.10;;
77944;SDS011;67142;47.404;-1.384;2023-05-07T14:07:57;14.82;;;13.63;;
77944;SDS011;67142;47.404;-1.384;2023-05-07T14:10:23;15.45;;;14.35;;
77944;SDS011;67142;47.404;-1.384;2023-05-07T14:12:50;14.77;;;13.67;;
77944;SDS011;67142;47.404;-1.384;2023-05-07T14:15:17;15.05;;;13.98;;
77944;SDS011;67142;47.404;-1.384;2023-05-07T14:17:43;14.90;;;13.80;;
77944;SDS011;67142;47.404;-1.384;2023-05-07T14:20:10;14.63;;;13.63;;
77944;SDS011;67142;47.404;-1.384;2023-05-07T14:22:36;14.55;;;13.55;;
77944;SDS011;67142;47.404;-1.384;2023-05-07T14:25:02;14.07;;;13.07;;